X  Schlie├čen METAR Luftfahrt Wetterdaten     EDDM Munich Airport
Temperatur
4°C Temperatur
-3°C Taupunkt
61% Feuchtigkeit



Wind
4 M/S
10 MPS
16 KM/S
9 KTS



310°
NW
Aktuelle Wetterlage

Regenschauer Small Hagel, Regenschauer Schnee Regenschauer Small Hagel, Regenschauer Schnee
Luftdruck 1025.92 (hPa) - 30.3 (inHg)
Sichtweite 6.2 (Meile) - 10 (Km)
Flughafen
Flughafen Code EDDM

Position : Munich Airport
Entfernung: 30 (Km)

Metar:
EDDM 131620Z 31009KT 280V350 9999 SHGSSN FEW030CB SCT040 04/M03 Q1026 BECMG NSW

Zeit: 13-04-2021 18:20 CEST